Time;durP1;ratioP1;P1;durP2;ratioP2;P2;SDS_P1;SDS_P2;PMS_P1;PMS_P2;Temp;Humidity;BMP_temperature;BMP_pressure;BME280_temperature;BME280_humidity;BME280_pressure;Samples;Min_cycle;Max_cycle;Signal;HPM_P1;HPM_P2
2024/02/01 00:00:05;;;;;;;13.02;5.30;;;;;;;6.95;100.00;102209.22;5008113;28;20075;-78
2024/02/01 00:02:30;;;;;;;22.67;6.18;;;;;;;6.87;100.00;102206.28;5007772;28;20125;-78
2024/02/01 00:04:56;;;;;;;16.40;5.15;;;;;;;6.81;100.00;102207.50;5027153;28;20059;-80
2024/02/01 00:07:21;;;;;;;15.68;5.70;;;;;;;6.88;100.00;102207.97;5009660;28;20029;-79
2024/02/01 00:09:48;;;;;;;12.73;5.53;;;;;;;6.99;100.00;102209.88;5009722;28;20037;-78
2024/02/01 00:12:13;;;;;;;20.27;6.82;;;;;;;6.95;100.00;102203.22;5002601;28;20824;-80
2024/02/01 00:14:39;;;;;;;11.75;5.28;;;;;;;7.09;100.00;102200.59;4992703;28;20137;-77
2024/02/01 00:17:05;;;;;;;11.98;6.38;;;;;;;7.08;100.00;102191.19;5009895;28;20041;-78
2024/02/01 00:19:31;;;;;;;15.23;6.10;;;;;;;7.04;100.00;102194.91;4990696;28;20058;-78
2024/02/01 00:21:56;;;;;;;13.52;6.10;;;;;;;7.01;100.00;102195.13;5014547;28;20037;-78
2024/02/01 00:24:22;;;;;;;11.68;5.70;;;;;;;7.12;100.00;102190.09;4991036;28;20401;-81
2024/02/01 00:26:48;;;;;;;16.83;5.97;;;;;;;7.06;100.00;102190.47;5010916;28;20381;-80
2024/02/01 00:29:13;;;;;;;17.40;6.03;;;;;;;7.24;100.00;102198.78;5009656;28;20108;-79
2024/02/01 00:31:39;;;;;;;18.55;5.03;;;;;;;7.15;100.00;102178.72;4990368;28;20029;-78
2024/02/01 00:34:04;;;;;;;12.85;6.22;;;;;;;7.18;100.00;102189.69;4993477;28;20075;-80
2024/02/01 00:36:29;;;;;;;11.10;5.78;;;;;;;7.18;100.00;102181.94;5008912;28;20397;-79
2024/02/01 00:38:55;;;;;;;12.55;5.30;;;;;;;7.20;100.00;102172.34;4990323;28;20073;-80
2024/02/01 00:41:21;;;;;;;14.48;6.63;;;;;;;7.12;100.00;102171.19;4989135;28;20129;-79
2024/02/01 00:43:46;;;;;;;10.10;5.90;;;;;;;7.14;100.00;102167.59;5009950;28;20033;-78
2024/02/01 00:46:14;;;;;;;23.23;6.82;;;;;;;7.23;100.00;102179.03;5006359;28;20038;-80
2024/02/01 00:48:40;;;;;;;21.42;7.78;;;;;;;7.28;100.00;102182.16;5011584;28;20034;-79
2024/02/01 00:51:07;;;;;;;16.20;6.35;;;;;;;7.34;100.00;102188.69;5010976;28;20033;-81
2024/02/01 00:53:32;;;;;;;16.20;7.43;;;;;;;7.19;100.00;102181.00;4994312;28;20523;-81
2024/02/01 00:55:57;;;;;;;13.68;6.05;;;;;;;7.13;100.00;102176.25;4996785;28;20049;-80
2024/02/01 00:58:23;;;;;;;17.05;7.68;;;;;;;7.01;100.00;102175.28;5006706;28;20069;-82
2024/02/01 01:00:48;;;;;;;18.42;6.32;;;;;;;6.99;100.00;102184.06;4992678;28;20042;-80
2024/02/01 01:03:14;;;;;;;16.60;6.72;;;;;;;6.89;100.00;102172.69;5008274;28;20049;-81
2024/02/01 01:05:40;;;;;;;18.38;6.57;;;;;;;6.92;100.00;102178.47;4998409;28;20068;-80
2024/02/01 01:08:06;;;;;;;17.70;8.65;;;;;;;6.93;100.00;102174.13;4995056;28;20065;-80
2024/02/01 01:10:31;;;;;;;14.45;6.70;;;;;;;6.84;100.00;102175.56;4994718;28;20558;-81
2024/02/01 01:12:57;;;;;;;11.20;6.47;;;;;;;6.78;100.00;102183.66;5014953;28;20029;-82
2024/02/01 01:15:22;;;;;;;24.63;7.35;;;;;;;6.79;100.00;102183.56;5010697;28;20084;-81
2024/02/01 01:17:47;;;;;;;18.90;7.80;;;;;;;6.72;100.00;102173.75;5008479;28;20535;-81
2024/02/01 01:20:13;;;;;;;16.52;6.82;;;;;;;6.71;100.00;102175.50;5016233;28;20101;-81
2024/02/01 01:22:38;;;;;;;18.48;7.88;;;;;;;6.69;100.00;102171.38;5006336;28;20037;-81
2024/02/01 01:25:04;;;;;;;18.90;7.43;;;;;;;6.70;100.00;102163.53;4992705;28;20030;-81
2024/02/01 01:27:30;;;;;;;15.43;6.97;;;;;;;6.71;100.00;102172.13;5007857;28;20103;-82
2024/02/01 01:29:55;;;;;;;16.25;7.78;;;;;;;6.68;100.00;102167.13;5015049;28;20033;-80
2024/02/01 01:32:21;;;;;;;15.43;7.82;;;;;;;6.75;100.00;102166.66;4994676;28;20041;-80
2024/02/01 01:34:46;;;;;;;13.52;7.25;;;;;;;6.78;100.00;102168.19;4995998;28;20042;-80
2024/02/01 01:37:12;;;;;;;19.15;7.47;;;;;;;6.76;100.00;102177.78;4993776;28;20400;-79
2024/02/01 01:39:37;;;;;;;19.38;7.82;;;;;;;6.73;100.00;102176.25;5024252;28;20063;-80
2024/02/01 01:42:03;;;;;;;17.23;7.70;;;;;;;6.75;100.00;102176.97;4991170;28;20033;-81
2024/02/01 01:44:28;;;;;;;17.02;8.63;;;;;;;6.79;100.00;102187.91;5003637;28;20065;-79
2024/02/01 01:46:55;;;;;;;15.52;7.90;;;;;;;6.66;100.00;102176.72;5026830;28;20042;-81
2024/02/01 01:49:20;;;;;;;17.13;7.85;;;;;;;6.60;100.00;102181.34;5008199;28;20042;-81
2024/02/01 01:51:51;;;;;;;18.98;7.78;;;;;;;6.68;100.00;102185.19;5012295;28;20035;-81
2024/02/01 01:54:20;;;;;;;18.30;8.43;;;;;;;6.70;100.00;102184.16;5022646;28;20045;-78
2024/02/01 01:56:46;;;;;;;12.85;7.47;;;;;;;6.84;100.00;102178.13;4991865;28;20021;-80
2024/02/01 01:59:13;;;;;;;13.13;7.75;;;;;;;6.70;100.00;102171.25;5008996;28;20034;-80
2024/02/01 02:01:46;;;;;;;18.63;8.25;;;;;;;6.80;100.00;102168.94;5008168;28;20044;-80
2024/02/01 02:04:14;;;;;;;20.45;8.40;;;;;;;6.75;100.00;102169.22;4998809;28;20121;-80
2024/02/01 02:06:42;;;;;;;15.73;8.00;;;;;;;6.75;100.00;102171.00;4997409;28;20056;-82
2024/02/01 02:09:12;;;;;;;18.45;8.38;;;;;;;6.72;100.00;102166.00;5015236;28;20038;-81
2024/02/01 02:11:43;;;;;;;18.45;8.15;;;;;;;6.67;100.00;102175.78;5009399;28;20034;-81
2024/02/01 02:14:15;;;;;;;15.13;8.70;;;;;;;6.72;100.00;102179.72;5032591;28;20056;-81
2024/02/01 02:16:41;;;;;;;17.42;8.77;;;;;;;6.74;100.00;102175.31;5028866;28;20049;-80
2024/02/01 02:19:09;;;;;;;15.15;8.65;;;;;;;6.77;100.00;102175.13;5014104;28;20080;-78
2024/02/01 02:21:38;;;;;;;18.38;8.68;;;;;;;6.87;100.00;102174.53;5033067;28;20253;-81
2024/02/01 02:24:04;;;;;;;14.68;8.73;;;;;;;6.83;100.00;102164.41;5015695;28;20034;-82
2024/02/01 02:26:30;;;;;;;16.33;9.20;;;;;;;6.82;100.00;102169.69;5009355;28;21355;-82
2024/02/01 02:28:55;;;;;;;15.10;8.50;;;;;;;6.75;100.00;102169.22;5029498;28;20038;-82
2024/02/01 02:31:20;;;;;;;16.08;8.77;;;;;;;6.89;100.00;102170.91;5012262;28;20037;-79
2024/02/01 02:33:46;;;;;;;19.88;9.07;;;;;;;6.77;100.00;102159.66;5016116;28;20038;-82
2024/02/01 02:36:11;;;;;;;18.33;10.07;;;;;;;6.71;100.00;102161.81;5001369;28;20036;-81
2024/02/01 02:38:40;;;;;;;14.45;9.18;;;;;;;6.79;100.00;102172.44;5000699;28;20045;-82
2024/02/01 02:41:05;;;;;;;14.90;9.38;;;;;;;6.71;100.00;102175.50;5010902;28;20503;-81
2024/02/01 02:43:31;;;;;;;17.45;9.98;;;;;;;6.76;100.00;102182.94;4996002;28;20034;-80
2024/02/01 02:45:57;;;;;;;20.45;10.30;;;;;;;6.87;100.00;102174.53;5013575;28;20653;-78
2024/02/01 02:48:22;;;;;;;16.17;9.98;;;;;;;6.83;100.00;102172.13;5010466;28;20429;-80
2024/02/01 02:50:47;;;;;;;19.27;9.98;;;;;;;6.89;100.00;102172.69;5015493;28;20046;-82
2024/02/01 02:53:13;;;;;;;23.55;10.75;;;;;;;6.85;100.00;102169.47;5013144;28;20052;-80
2024/02/01 02:55:38;;;;;;;25.33;10.23;;;;;;;6.88;100.00;102171.84;5030878;28;20044;-79
2024/02/01 02:58:04;;;;;;;20.42;10.05;;;;;;;6.88;100.00;102178.78;5009975;28;20519;-83
2024/02/01 03:00:32;;;;;;;17.67;9.85;;;;;;;6.91;100.00;102176.81;5010642;28;20405;-81
2024/02/01 03:02:58;;;;;;;19.83;9.88;;;;;;;6.98;100.00;102179.81;5007122;28;20510;-81
2024/02/01 03:05:23;;;;;;;17.30;9.93;;;;;;;6.93;100.00;102174.97;5012100;28;20088;-81
2024/02/01 03:07:51;;;;;;;19.88;9.98;;;;;;;6.93;100.00;102185.28;4993021;28;20495;-80
2024/02/01 03:10:18;;;;;;;20.52;9.80;;;;;;;6.90;100.00;102182.06;5027999;28;20062;-82
2024/02/01 03:12:44;;;;;;;17.42;9.00;;;;;;;6.88;100.00;102178.78;5005469;28;20053;-80
2024/02/01 03:15:09;;;;;;;17.05;9.18;;;;;;;6.94;100.00;102181.78;5004839;28;20918;-80
2024/02/01 03:17:37;;;;;;;16.40;9.65;;;;;;;6.95;100.00;102175.69;4992510;28;20037;-81
2024/02/01 03:20:17;;;;;;;15.88;9.43;;;;;;;7.00;100.00;102183.94;5025574;28;20026;-81
2024/02/01 03:22:44;;;;;;;16.90;9.32;;;;;;;6.99;100.00;102181.50;5009477;28;20030;-81
2024/02/01 03:25:10;;;;;;;17.73;9.52;;;;;;;7.00;100.00;102177.97;5010432;28;20088;-80
2024/02/01 03:27:36;;;;;;;19.85;9.20;;;;;;;6.94;100.00;102184.34;4990031;28;20061;-80
2024/02/01 03:30:01;;;;;;;14.30;8.50;;;;;;;6.95;100.00;102185.16;5021422;28;20046;-80
2024/02/01 03:32:29;;;;;;;17.85;9.10;;;;;;;6.91;100.00;102194.88;5004156;28;20108;-80
2024/02/01 03:34:55;;;;;;;23.30;10.07;;;;;;;6.90;100.00;102194.97;5001482;28;20041;-79
2024/02/01 03:37:21;;;;;;;18.85;9.30;;;;;;;6.94;100.00;102193.84;4993133;28;20045;-81
2024/02/01 03:39:47;;;;;;;19.30;9.82;;;;;;;6.99;100.00;102196.97;4997864;28;20057;-81
2024/02/01 03:42:13;;;;;;;18.77;10.00;;;;;;;7.00;100.00;102194.25;5013751;28;20029;-80
2024/02/01 03:44:39;;;;;;;18.50;9.18;;;;;;;7.00;100.00;102193.44;5014824;28;20042;-80
2024/02/01 03:47:11;;;;;;;20.20;9.10;;;;;;;7.10;100.00;102201.41;5032367;28;20053;-81
2024/02/01 03:49:40;;;;;;;18.88;9.77;;;;;;;7.00;100.00;102198.59;4993096;28;20034;-79
2024/02/01 03:52:09;;;;;;;20.83;9.80;;;;;;;7.15;100.00;102205.34;5037156;28;20392;-81
2024/02/01 03:54:38;;;;;;;14.77;8.95;;;;;;;7.06;100.00;102197.38;5027633;28;20030;-79
2024/02/01 03:57:05;;;;;;;18.23;10.65;;;;;;;7.10;100.00;102197.09;5012827;28;20041;-79
2024/02/01 03:59:31;;;;;;;19.30;10.70;;;;;;;7.18;100.00;102199.19;5014460;28;20079;-80
2024/02/01 04:02:03;;;;;;;17.55;9.88;;;;;;;7.02;100.00;102197.56;4993723;28;20052;-80
2024/02/01 04:04:30;;;;;;;18.33;10.47;;;;;;;7.12;100.00;102204.72;5010375;28;20037;-80
2024/02/01 04:06:55;;;;;;;18.95;10.35;;;;;;;7.10;100.00;102204.00;5027166;28;20108;-81
2024/02/01 04:09:21;;;;;;;20.25;10.13;;;;;;;7.14;100.00;102216.63;4993509;28;20049;-80
2024/02/01 04:11:46;;;;;;;20.88;11.00;;;;;;;7.09;100.00;102218.66;5008089;28;20034;-81
2024/02/01 04:18:00;;;;;;;16.98;10.32;;;;;;;7.04;100.00;102223.28;5011043;28;20045;-80
2024/02/01 04:20:26;;;;;;;21.50;10.43;;;;;;;7.16;100.00;102229.41;4992697;28;20029;-78
2024/02/01 04:22:53;;;;;;;22.75;11.52;;;;;;;7.08;100.00;102229.88;4993289;28;20613;-80
2024/02/01 04:25:25;;;;;;;19.95;11.73;;;;;;;7.20;100.00;102233.44;5014423;28;20034;-81
2024/02/01 04:27:52;;;;;;;17.97;11.00;;;;;;;7.18;100.00;102245.63;4992697;28;20041;-80
2024/02/01 04:30:18;;;;;;;21.98;12.13;;;;;;;7.15;100.00;102249.22;5011277;28;20034;-79
2024/02/01 04:32:45;;;;;;;25.38;12.40;;;;;;;7.21;100.00;102254.00;5026436;28;20045;-80
2024/02/01 04:35:15;;;;;;;26.23;13.38;;;;;;;7.19;100.00;102258.41;5010362;28;20045;-80
2024/02/01 04:37:44;;;;;;;21.70;12.55;;;;;;;7.26;100.00;102263.19;4989730;28;20378;-79
2024/02/01 04:40:11;;;;;;;22.67;13.68;;;;;;;7.21;100.00;102266.91;5027420;28;20500;-80
2024/02/01 04:42:40;;;;;;;24.20;13.40;;;;;;;7.28;100.00;102269.06;5008282;28;20508;-80
2024/02/01 04:45:07;;;;;;;25.90;15.02;;;;;;;7.20;100.00;102275.53;5013124;28;20400;-80
2024/02/01 04:47:36;;;;;;;27.75;14.68;;;;;;;7.30;100.00;102283.53;5008379;28;20071;-80
2024/02/01 04:50:03;;;;;;;25.40;15.40;;;;;;;7.29;100.00;102284.47;5016354;28;20033;-81
2024/02/01 04:52:30;;;;;;;27.38;15.52;;;;;;;7.38;100.00;102301.94;4989495;28;20095;-79
2024/02/01 04:54:58;;;;;;;26.88;15.43;;;;;;;7.40;100.00;102302.66;4996354;28;20029;-81
2024/02/01 04:57:24;;;;;;;29.38;15.80;;;;;;;7.35;100.00;102296.97;4990020;28;20124;-81
2024/02/01 04:59:50;;;;;;;26.02;14.98;;;;;;;7.34;100.00;102295.28;4993849;28;20037;-81
2024/02/01 05:02:16;;;;;;;30.55;15.00;;;;;;;7.37;100.00;102295.09;5009673;28;20517;-80
2024/02/01 05:04:42;;;;;;;24.63;14.95;;;;;;;7.41;100.00;102300.91;5008267;28;20037;-79
2024/02/01 05:07:08;;;;;;;22.50;15.02;;;;;;;7.33;100.00;102303.97;4995824;28;20021;-79
2024/02/01 05:09:36;;;;;;;24.80;15.23;;;;;;;7.38;100.00;102299.34;5024568;28;20496;-80
2024/02/01 05:12:02;;;;;;;30.38;14.68;;;;;;;7.31;100.00;102298.09;5014904;28;20030;-81
2024/02/01 05:14:28;;;;;;;29.35;15.90;;;;;;;7.29;100.00;102307.69;5025355;28;20129;-81
2024/02/01 05:16:53;;;;;;;30.52;15.70;;;;;;;7.30;100.00;102311.09;4994393;28;20053;-79
2024/02/01 05:19:20;;;;;;;28.55;16.20;;;;;;;7.45;100.00;102314.44;4993240;28;20088;-79
2024/02/01 05:21:47;;;;;;;32.90;16.30;;;;;;;7.36;100.00;102324.41;5007197;28;20029;-79
2024/02/01 05:24:13;;;;;;;31.92;16.10;;;;;;;7.43;100.00;102322.28;5008133;28;20042;-78
2024/02/01 05:26:46;;;;;;;28.05;15.55;;;;;;;7.35;100.00;102325.34;5022945;28;20054;-81
2024/02/01 05:29:15;;;;;;;38.45;17.33;;;;;;;7.34;100.00;102318.53;5006856;28;20117;-80
2024/02/01 05:31:47;;;;;;;34.22;15.90;;;;;;;7.27;100.00;102321.59;5008678;28;20040;-79
2024/02/01 05:34:16;;;;;;;31.88;17.73;;;;;;;7.44;100.00;102329.09;5009542;28;20096;-77
2024/02/01 05:36:45;;;;;;;34.47;17.95;;;;;;;7.35;100.00;102340.84;5024053;28;20041;-80
2024/02/01 05:39:27;;;;;;;34.47;17.38;;;;;;;7.38;100.00;102337.22;5013818;28;20026;-80
2024/02/01 05:41:58;;;;;;;38.90;18.52;;;;;;;7.40;100.00;102333.63;5029844;28;20520;-80
2024/02/01 05:44:25;;;;;;;36.63;17.73;;;;;;;7.51;100.00;102339.84;5010086;28;20042;-78
2024/02/01 05:46:55;;;;;;;36.78;18.05;;;;;;;7.51;100.00;102345.00;5030308;28;20065;-81
2024/02/01 05:49:28;;;;;;;30.73;17.85;;;;;;;7.53;100.00;102351.72;5025647;28;20097;-79
2024/02/01 05:51:54;;;;;;;37.60;17.48;;;;;;;7.61;100.00;102356.44;5013209;28;20496;-79
2024/02/01 05:54:21;;;;;;;34.83;16.00;;;;;;;7.57;100.00;102350.63;4993154;28;20030;-80
2024/02/01 05:56:47;;;;;;;36.80;17.27;;;;;;;7.47;100.00;102354.72;5010886;28;20084;-80
2024/02/01 05:59:14;;;;;;;31.25;17.63;;;;;;;7.51;100.00;102357.94;5011191;28;20046;-80
2024/02/01 06:01:40;;;;;;;32.63;17.35;;;;;;;7.61;100.00;102366.75;4996792;28;20040;-80
2024/02/01 06:04:07;;;;;;;43.22;18.17;;;;;;;7.58;100.00;102377.25;5014650;28;20049;-77
2024/02/01 06:06:36;;;;;;;36.72;18.65;;;;;;;7.49;100.00;102380.44;4995288;28;20037;-80
2024/02/01 06:09:02;;;;;;;34.88;16.83;;;;;;;7.45;100.00;102378.97;5023944;28;20057;-79
2024/02/01 06:11:27;;;;;;;31.63;16.27;;;;;;;7.40;100.00;102374.94;5013492;28;20025;-77
2024/02/01 06:13:53;;;;;;;34.08;16.48;;;;;;;7.51;100.00;102378.56;5028466;28;20066;-79
2024/02/01 06:16:19;;;;;;;36.70;15.50;;;;;;;7.52;100.00;102391.38;4994403;28;20478;-78
2024/02/01 06:18:44;;;;;;;39.97;16.58;;;;;;;7.53;100.00;102397.38;5012094;28;20022;-78
2024/02/01 06:21:16;;;;;;;37.53;16.73;;;;;;;7.40;100.00;102399.88;5029665;28;20100;-78
2024/02/01 06:23:42;;;;;;;31.58;14.90;;;;;;;7.36;100.00;102404.41;5014021;28;20467;-79
2024/02/01 06:26:07;;;;;;;33.08;14.48;;;;;;;7.22;100.00;102413.03;5028150;28;20411;-79
2024/02/01 06:28:33;;;;;;;30.95;14.55;;;;;;;7.24;100.00;102410.34;4995271;28;20038;-78
2024/02/01 06:30:58;;;;;;;27.27;14.90;;;;;;;7.29;100.00;102416.06;5027026;28;20058;-78
2024/02/01 06:33:28;;;;;;;35.53;14.20;;;;;;;7.22;100.00;102425.09;4994944;28;20053;-79
2024/02/01 06:35:55;;;;;;;34.58;14.70;;;;;;;7.19;100.00;102443.34;5009418;28;20037;-79
2024/02/01 06:38:35;;;;;;;34.97;13.90;;;;;;;7.15;100.00;102452.19;4993599;28;20041;-78
2024/02/01 06:41:17;;;;;;;21.90;9.05;;;;;;;7.15;100.00;102458.19;5010984;28;20116;-78
2024/02/01 06:46:49;;;;;;;22.83;7.35;;;;;;;6.91;100.00;102462.22;5022885;28;20030;-79
2024/02/01 06:49:18;;;;;;;24.98;7.03;;;;;;;6.79;100.00;102464.63;5005369;28;20042;-78
2024/02/01 06:51:43;;;;;;;22.33;3.28;;;;;;;6.41;100.00;102472.00;5015231;28;20407;-79
2024/02/01 06:54:28;;;;;;;20.42;4.15;;;;;;;6.39;100.00;102479.00;5012544;28;20076;-77
2024/02/01 06:57:02;;;;;;;26.92;2.80;;;;;;;6.20;100.00;102480.03;5028865;28;20038;-77
2024/02/01 06:59:43;;;;;;;16.38;2.65;;;;;;;6.07;100.00;102491.94;4995617;28;20084;-78
2024/02/01 07:02:24;;;;;;;19.45;2.67;;;;;;;6.03;100.00;102503.34;5006878;28;20038;-78
2024/02/01 07:04:51;;;;;;;15.50;2.17;;;;;;;5.95;100.00;102516.66;5007933;28;20041;-76
2024/02/01 07:07:18;;;;;;;15.43;2.60;;;;;;;5.76;100.00;102531.38;4995678;28;20569;-79
2024/02/01 07:09:57;;;;;;;22.60;2.40;;;;;;;5.74;100.00;102541.75;5023669;28;20146;-77
2024/02/01 07:12:41;;;;;;;20.95;2.70;;;;;;;5.69;100.00;102537.75;5025852;28;20040;-80
2024/02/01 07:15:54;;;;;;;23.00;3.58;;;;;;;5.58;100.00;102540.91;5008314;28;20042;-78
2024/02/01 07:18:09;;;;;;;28.80;2.58;;;;;;;5.57;100.00;102545.22;5008159;28;20431;-79
2024/02/01 07:25:49;;;;;;;25.92;3.80;;;;;;;5.20;100.00;102567.72;5010476;28;20034;-79
2024/02/01 07:58:29;;;;;;;18.52;2.30;;;;;;;4.74;100.00;102636.81;5029548;28;20041;-80
2024/02/01 08:00:56;;;;;;;21.83;3.10;;;;;;;4.74;100.00;102638.56;5010211;28;20038;-78
2024/02/01 08:08:40;;;;;;;16.73;3.70;;;;;;;4.73;100.00;102655.72;5010123;28;20037;-79
2024/02/01 08:11:05;;;;;;;27.25;3.53;;;;;;;4.72;100.00;102646.34;4993909;28;20045;-79
2024/02/01 08:13:31;;;;;;;18.45;3.75;;;;;;;4.74;100.00;102656.53;5012954;28;20428;-79
2024/02/01 08:15:57;;;;;;;16.83;3.47;;;;;;;4.75;100.00;102671.91;5008286;28;20033;-79
2024/02/01 08:18:26;;;;;;;19.50;4.18;;;;;;;4.75;100.00;102671.91;5015763;28;20041;-80
2024/02/01 08:20:52;;;;;;;18.45;2.72;;;;;;;4.77;100.00;102675.22;5011839;28;20049;-79
2024/02/01 08:23:21;;;;;;;21.25;2.72;;;;;;;4.77;100.00;102677.81;5005848;28;20030;-79
2024/02/01 08:25:50;;;;;;;20.48;2.83;;;;;;;4.75;100.00;102673.66;5011799;28;20109;-79
2024/02/01 08:28:17;;;;;;;26.48;3.53;;;;;;;4.74;100.00;102677.94;5011394;28;20041;-79
2024/02/01 08:30:47;;;;;;;20.25;2.65;;;;;;;4.80;100.00;102669.09;5017904;28;20045;-79
2024/02/01 08:33:16;;;;;;;16.13;3.78;;;;;;;4.86;100.00;102673.97;5009870;28;20034;-80
2024/02/01 08:35:43;;;;;;;32.90;5.07;;;;;;;4.92;100.00;102680.56;5001365;28;20056;-79
2024/02/01 08:38:09;;;;;;;28.13;4.13;;;;;;;4.88;100.00;102682.44;5003300;28;20121;-78
2024/02/01 08:40:40;;;;;;;20.48;3.42;;;;;;;4.87;100.00;102683.34;4993703;28;20056;-79
2024/02/01 08:43:10;;;;;;;26.52;3.72;;;;;;;4.88;100.00;102685.84;4991082;28;20057;-79
2024/02/01 08:45:40;;;;;;;28.17;3.60;;;;;;;4.99;100.00;102689.63;5006213;28;20480;-78
2024/02/01 08:48:08;;;;;;;27.92;2.70;;;;;;;5.09;100.00;102687.47;5008181;28;20124;-78
2024/02/01 08:50:46;;;;;;;23.15;3.72;;;;;;;5.30;100.00;102691.56;5023553;28;20064;-79
2024/02/01 08:53:13;;;;;;;23.42;2.97;;;;;;;5.52;100.00;102691.34;5023468;28;20056;-79
2024/02/01 08:55:39;;;;;;;37.97;4.63;;;;;;;5.86;100.00;102684.47;4989830;28;20500;-78
2024/02/01 08:58:08;;;;;;;25.63;3.58;;;;;;;6.12;100.00;102692.59;4989351;28;20048;-79
2024/02/01 09:00:38;;;;;;;30.75;3.33;;;;;;;6.33;100.00;102700.94;5027756;28;20057;-78
2024/02/01 09:03:06;;;;;;;18.80;3.75;;;;;;;6.53;100.00;102705.84;5010226;28;20042;-78
2024/02/01 09:05:36;;;;;;;22.00;3.10;;;;;;;6.70;100.00;102709.25;4990273;28;20030;-78
2024/02/01 09:08:04;;;;;;;43.63;4.20;;;;;;;6.82;100.00;102718.91;5008223;28;20038;-79
2024/02/01 09:10:33;;;;;;;26.08;2.90;;;;;;;7.03;100.00;102706.56;5011280;28;20113;-80
2024/02/01 09:12:58;;;;;;;25.77;2.78;;;;;;;7.09;100.00;102723.44;5011530;28;20061;-78
2024/02/01 09:15:24;;;;;;;18.35;2.72;;;;;;;7.14;99.76;102722.28;4998152;28;20065;-78
2024/02/01 09:17:51;;;;;;;21.83;3.42;;;;;;;7.16;99.24;102723.00;5008828;28;20034;-79
2024/02/01 09:20:17;;;;;;;20.48;3.13;;;;;;;7.10;100.00;102727.69;5032055;28;20038;-78
2024/02/01 09:22:51;;;;;;;20.75;2.95;;;;;;;6.96;100.00;102738.78;4996650;28;20263;-79
2024/02/01 09:25:21;;;;;;;25.40;2.97;;;;;;;6.75;100.00;102733.88;5008687;28;20038;-77
2024/02/01 09:27:51;;;;;;;20.20;3.60;;;;;;;6.58;100.00;102741.69;4998837;28;20562;-78
2024/02/01 09:30:19;;;;;;;23.80;3.00;;;;;;;6.49;100.00;102737.84;5013215;28;20396;-78
2024/02/01 09:32:49;;;;;;;33.22;4.93;;;;;;;6.32;100.00;102746.47;4993760;28;20382;-79
2024/02/01 09:35:16;;;;;;;23.05;3.00;;;;;;;6.34;100.00;102749.81;5008132;28;20056;-77
2024/02/01 09:37:42;;;;;;;28.95;3.28;;;;;;;6.29;100.00;102746.66;4994257;28;20435;-78
2024/02/01 09:40:10;;;;;;;28.70;4.05;;;;;;;6.29;100.00;102753.53;5012702;28;20037;-77
2024/02/01 09:42:37;;;;;;;22.80;4.88;;;;;;;6.28;100.00;102751.88;5028922;28;20076;-78
2024/02/01 09:45:04;;;;;;;27.90;3.08;;;;;;;6.18;100.00;102757.53;5014587;28;20040;-77
2024/02/01 09:47:52;;;;;;;24.00;3.63;;;;;;;6.16;100.00;102756.78;5010447;28;20109;-77
2024/02/01 09:50:20;;;;;;;34.88;3.75;;;;;;;6.11;100.00;102768.22;5015835;28;20046;-78
2024/02/01 09:52:47;;;;;;;25.95;3.47;;;;;;;6.21;100.00;102767.66;5011343;28;20037;-78
2024/02/01 09:55:17;;;;;;;26.08;2.97;;;;;;;6.12;100.00;102765.56;5007271;28;20496;-78
2024/02/01 09:57:52;;;;;;;18.08;2.58;;;;;;;6.14;100.00;102774.06;5006493;28;20034;-78
2024/02/01 10:00:18;;;;;;;25.70;3.30;;;;;;;6.11;100.00;102774.19;5007215;28;20027;-78
2024/02/01 10:02:46;;;;;;;35.28;3.00;;;;;;;6.13;100.00;102776.69;5042130;28;20133;-78
2024/02/01 10:05:12;;;;;;;28.20;3.08;;;;;;;6.10;100.00;102779.41;4998690;28;20025;-78
2024/02/01 10:07:38;;;;;;;29.27;3.38;;;;;;;6.23;100.00;102783.88;5008977;28;20402;-78
2024/02/01 10:10:05;;;;;;;31.48;3.28;;;;;;;6.22;100.00;102781.38;5012280;28;20033;-78
2024/02/01 10:12:31;;;;;;;30.45;3.90;;;;;;;6.25;100.00;102781.19;5017467;28;20038;-77
2024/02/01 10:14:57;;;;;;;27.63;3.80;;;;;;;6.29;100.00;102787.88;5033951;28;20165;-77
2024/02/01 10:17:24;;;;;;;33.35;4.25;;;;;;;6.22;100.00;102791.69;4997704;28;20026;-78
2024/02/01 10:19:52;;;;;;;27.08;4.18;;;;;;;6.35;100.00;102795.28;5009242;28;20077;-78
2024/02/01 10:22:19;;;;;;;34.75;3.90;;;;;;;6.27;100.00;102794.84;4992560;28;20519;-78
2024/02/01 10:24:48;;;;;;;27.50;3.17;;;;;;;6.30;100.00;102799.84;5010272;28;20076;-79
2024/02/01 10:27:15;;;;;;;29.55;4.80;;;;;;;6.40;100.00;102806.19;5010786;28;20089;-78
2024/02/01 10:29:44;;;;;;;26.08;3.10;;;;;;;6.42;100.00;102794.06;5010588;28;20046;-79
2024/02/01 10:32:16;;;;;;;37.00;4.97;;;;;;;6.35;100.00;102797.88;5028092;28;20042;-77
2024/02/01 10:34:50;;;;;;;35.13;3.42;;;;;;;6.40;100.00;102815.66;5010772;28;20045;-77
2024/02/01 10:37:17;;;;;;;24.42;3.72;;;;;;;6.45;100.00;102816.25;5008375;28;20063;-77
2024/02/01 10:40:06;;;;;;;32.60;3.50;;;;;;;6.36;100.00;102821.88;5016283;28;20551;-77
2024/02/01 10:42:33;;;;;;;34.33;3.42;;;;;;;6.37;99.76;102810.69;5005921;28;20050;-77
2024/02/01 10:45:05;;;;;;;29.65;5.47;;;;;;;6.34;99.84;102811.66;5002226;28;20033;-78
2024/02/01 10:47:38;;;;;;;32.92;3.33;;;;;;;6.36;100.00;102809.81;4993226;28;20029;-77
2024/02/01 10:50:06;;;;;;;30.73;3.90;;;;;;;6.52;100.00;102815.03;5013559;28;20034;-76
2024/02/01 10:52:33;;;;;;;33.13;3.75;;;;;;;6.44;98.96;102812.00;5010372;28;20042;-76
2024/02/01 10:55:00;;;;;;;30.83;4.18;;;;;;;6.41;100.00;102810.44;5027269;28;20048;-78
2024/02/01 10:57:26;;;;;;;31.58;3.80;;;;;;;6.56;100.00;102813.13;5008142;28;20030;-77
2024/02/01 10:59:53;;;;;;;28.75;4.22;;;;;;;6.70;98.42;102815.78;5011834;28;20029;-76
2024/02/01 11:02:20;;;;;;;29.17;3.85;;;;;;;6.59;98.50;102813.81;5006246;28;20034;-78
2024/02/01 11:04:48;;;;;;;30.23;3.00;;;;;;;6.66;98.74;102813.47;5027579;28;20038;-77
2024/02/01 11:07:23;;;;;;;30.75;3.53;;;;;;;6.65;97.59;102802.34;5012632;28;20080;-77
2024/02/01 11:09:50;;;;;;;24.38;3.45;;;;;;;6.67;96.67;102800.50;5013436;28;20046;-77
2024/02/01 11:12:22;;;;;;;27.13;3.10;;;;;;;6.65;94.87;102798.91;5008737;28;20029;-78
2024/02/01 11:14:49;;;;;;;34.03;2.97;;;;;;;6.66;96.25;102796.25;4990958;28;20620;-76
2024/02/01 11:17:23;;;;;;;22.13;4.25;;;;;;;6.88;97.91;102795.13;5007191;28;20073;-78
2024/02/01 11:19:54;;;;;;;30.75;5.82;;;;;;;6.78;96.35;102797.34;4995363;28;20073;-77
2024/02/01 11:22:20;;;;;;;23.80;3.05;;;;;;;6.75;96.06;102785.44;5016592;28;20102;-78
2024/02/01 11:24:45;;;;;;;31.30;4.47;;;;;;;6.74;95.62;102785.53;5033616;28;20049;-78
2024/02/01 11:27:17;;;;;;;28.40;3.03;;;;;;;6.77;96.11;102804.25;5012147;28;20030;-77
2024/02/01 11:29:53;;;;;;;22.83;3.60;;;;;;;6.85;95.15;102797.84;5009143;28;20033;-77
2024/02/01 11:32:22;;;;;;;33.17;3.75;;;;;;;6.83;95.29;102796.16;5011597;28;20547;-78
2024/02/01 11:34:59;;;;;;;26.50;3.30;;;;;;;7.01;96.45;102798.69;4998130;28;20033;-78
2024/02/01 11:37:24;;;;;;;36.55;3.40;;;;;;;6.92;94.29;102805.16;4988973;28;20038;-78
2024/02/01 11:39:52;;;;;;;23.95;2.45;;;;;;;7.00;93.23;102792.66;5008700;28;20041;-78
2024/02/01 11:42:21;;;;;;;28.63;3.55;;;;;;;6.94;92.92;102792.19;5000241;28;20038;-78
2024/02/01 11:44:48;;;;;;;20.08;2.65;;;;;;;6.92;95.05;102786.28;5010011;28;20112;-78
2024/02/01 11:47:13;;;;;;;23.58;2.78;;;;;;;7.04;94.79;102787.34;5009551;28;20038;-77
2024/02/01 11:49:40;;;;;;;20.35;2.53;;;;;;;7.01;93.11;102794.34;5005803;28;20033;-77
2024/02/01 11:52:43;;;;;;;24.08;3.17;;;;;;;6.99;91.95;102775.53;4992966;28;20037;-77
2024/02/01 11:55:10;;;;;;;29.13;3.88;;;;;;;7.03;93.02;102783.94;5020974;28;20133;-78
2024/02/01 11:57:47;;;;;;;26.27;3.50;;;;;;;7.21;92.06;102790.69;5002662;28;20062;-77
2024/02/01 12:00:16;;;;;;;29.10;2.97;;;;;;;7.19;92.22;102797.66;5010677;28;20599;-78
2024/02/01 12:02:45;;;;;;;30.27;3.03;;;;;;;7.11;90.75;102799.00;4991086;28;20116;-78
2024/02/01 12:05:12;;;;;;;20.17;3.10;;;;;;;7.05;92.90;102797.59;5007182;28;20033;-81
2024/02/01 12:07:37;;;;;;;18.15;2.97;;;;;;;7.13;93.07;102812.66;5001199;28;20108;-77